sensor_id;sensor_type;location;lat;lon;timestamp;temperature;humidity
8002;DHT22;4046;48.774;8.732;2023-06-19T00:02:21;24.30;94.40
8002;DHT22;4046;48.774;8.732;2023-06-19T00:04:47;24.30;94.40
8002;DHT22;4046;48.774;8.732;2023-06-19T00:07:13;24.30;94.40
8002;DHT22;4046;48.774;8.732;2023-06-19T00:09:39;24.30;94.40
8002;DHT22;4046;48.774;8.732;2023-06-19T00:12:06;24.30;94.40
8002;DHT22;4046;48.774;8.732;2023-06-19T00:14:35;24.30;94.40
8002;DHT22;4046;48.774;8.732;2023-06-19T00:17:02;24.30;94.40
8002;DHT22;4046;48.774;8.732;2023-06-19T00:19:28;24.30;94.40
8002;DHT22;4046;48.774;8.732;2023-06-19T00:21:54;24.20;94.40
8002;DHT22;4046;48.774;8.732;2023-06-19T00:24:23;24.20;94.40
8002;DHT22;4046;48.774;8.732;2023-06-19T00:26:49;24.30;94.40
8002;DHT22;4046;48.774;8.732;2023-06-19T00:29:15;24.50;94.90
8002;DHT22;4046;48.774;8.732;2023-06-19T00:31:40;24.30;94.40
8002;DHT22;4046;48.774;8.732;2023-06-19T00:34:06;24.30;94.40
8002;DHT22;4046;48.774;8.732;2023-06-19T00:36:32;24.30;94.50
8002;DHT22;4046;48.774;8.732;2023-06-19T00:38:58;24.30;94.50
8002;DHT22;4046;48.774;8.732;2023-06-19T00:41:25;24.30;94.50
8002;DHT22;4046;48.774;8.732;2023-06-19T00:43:52;24.30;94.50
8002;DHT22;4046;48.774;8.732;2023-06-19T00:46:19;24.30;94.50
8002;DHT22;4046;48.774;8.732;2023-06-19T00:48:45;24.30;94.50
8002;DHT22;4046;48.774;8.732;2023-06-19T00:51:11;24.30;94.50
8002;DHT22;4046;48.774;8.732;2023-06-19T00:53:37;24.30;94.50
8002;DHT22;4046;48.774;8.732;2023-06-19T00:56:03;24.30;94.50
8002;DHT22;4046;48.774;8.732;2023-06-19T00:58:29;24.30;94.50
8002;DHT22;4046;48.774;8.732;2023-06-19T01:00:55;24.30;94.50
8002;DHT22;4046;48.774;8.732;2023-06-19T01:03:22;24.00;94.40
8002;DHT22;4046;48.774;8.732;2023-06-19T01:05:49;24.20;94.50
8002;DHT22;4046;48.774;8.732;2023-06-19T01:08:42;24.20;94.50
8002;DHT22;4046;48.774;8.732;2023-06-19T01:11:09;24.20;94.50
8002;DHT22;4046;48.774;8.732;2023-06-19T01:16:08;24.30;94.60
8002;DHT22;4046;48.774;8.732;2023-06-19T01:18:36;24.20;94.50
8002;DHT22;4046;48.774;8.732;2023-06-19T01:21:13;24.20;94.50
8002;DHT22;4046;48.774;8.732;2023-06-19T01:23:40;24.20;94.60
8002;DHT22;4046;48.774;8.732;2023-06-19T01:26:06;24.20;94.60
8002;DHT22;4046;48.774;8.732;2023-06-19T01:28:33;24.20;94.60
8002;DHT22;4046;48.774;8.732;2023-06-19T01:31:00;24.20;94.60
8002;DHT22;4046;48.774;8.732;2023-06-19T01:33:28;24.20;94.60
8002;DHT22;4046;48.774;8.732;2023-06-19T01:35:55;24.20;94.60
8002;DHT22;4046;48.774;8.732;2023-06-19T01:38:23;24.20;94.60
8002;DHT22;4046;48.774;8.732;2023-06-19T01:40:52;24.30;94.70
8002;DHT22;4046;48.774;8.732;2023-06-19T01:43:20;24.30;94.70
8002;DHT22;4046;48.774;8.732;2023-06-19T01:45:46;24.30;94.60
8002;DHT22;4046;48.774;8.732;2023-06-19T01:48:13;24.20;94.60
8002;DHT22;4046;48.774;8.732;2023-06-19T01:50:41;24.20;94.60
8002;DHT22;4046;48.774;8.732;2023-06-19T01:53:07;24.40;94.70
8002;DHT22;4046;48.774;8.732;2023-06-19T01:55:33;24.30;94.70
8002;DHT22;4046;48.774;8.732;2023-06-19T01:57:59;24.30;94.70
8002;DHT22;4046;48.774;8.732;2023-06-19T02:00:25;24.30;94.70
8002;DHT22;4046;48.774;8.732;2023-06-19T02:02:51;24.30;94.70
8002;DHT22;4046;48.774;8.732;2023-06-19T02:05:17;24.20;94.60
8002;DHT22;4046;48.774;8.732;2023-06-19T02:07:42;24.30;94.70
8002;DHT22;4046;48.774;8.732;2023-06-19T02:10:09;24.30;94.70
8002;DHT22;4046;48.774;8.732;2023-06-19T02:12:35;24.30;94.70
8002;DHT22;4046;48.774;8.732;2023-06-19T02:15:01;24.30;94.80
8002;DHT22;4046;48.774;8.732;2023-06-19T02:17:26;24.30;94.80
8002;DHT22;4046;48.774;8.732;2023-06-19T02:19:52;24.30;94.90
8002;DHT22;4046;48.774;8.732;2023-06-19T02:22:21;24.30;94.80
8002;DHT22;4046;48.774;8.732;2023-06-19T02:24:47;24.30;94.90
8002;DHT22;4046;48.774;8.732;2023-06-19T02:27:13;24.20;94.90
8002;DHT22;4046;48.774;8.732;2023-06-19T02:29:39;24.30;95.00
8002;DHT22;4046;48.774;8.732;2023-06-19T02:32:05;24.20;94.90
8002;DHT22;4046;48.774;8.732;2023-06-19T02:34:31;24.20;95.00
8002;DHT22;4046;48.774;8.732;2023-06-19T02:36:58;24.20;95.00
8002;DHT22;4046;48.774;8.732;2023-06-19T02:39:25;24.30;95.10
8002;DHT22;4046;48.774;8.732;2023-06-19T02:41:51;24.30;95.10
8002;DHT22;4046;48.774;8.732;2023-06-19T02:44:18;24.30;95.10
8002;DHT22;4046;48.774;8.732;2023-06-19T02:46:45;24.30;95.30
8002;DHT22;4046;48.774;8.732;2023-06-19T02:49:11;24.30;95.20
8002;DHT22;4046;48.774;8.732;2023-06-19T02:51:37;24.30;95.30
8002;DHT22;4046;48.774;8.732;2023-06-19T02:54:04;24.30;95.20
8002;DHT22;4046;48.774;8.732;2023-06-19T02:56:32;24.30;95.30
8002;DHT22;4046;48.774;8.732;2023-06-19T02:58:59;24.30;95.20
8002;DHT22;4046;48.774;8.732;2023-06-19T03:01:25;24.30;95.30
8002;DHT22;4046;48.774;8.732;2023-06-19T03:03:52;24.30;95.40
8002;DHT22;4046;48.774;8.732;2023-06-19T03:06:18;24.30;95.40
8002;DHT22;4046;48.774;8.732;2023-06-19T03:08:44;24.30;95.30
8002;DHT22;4046;48.774;8.732;2023-06-19T03:11:11;24.30;95.30
8002;DHT22;4046;48.774;8.732;2023-06-19T03:13:53;24.30;95.40
8002;DHT22;4046;48.774;8.732;2023-06-19T03:16:20;24.20;95.50
8002;DHT22;4046;48.774;8.732;2023-06-19T03:18:47;24.20;95.50
8002;DHT22;4046;48.774;8.732;2023-06-19T03:21:14;24.20;95.50
8002;DHT22;4046;48.774;8.732;2023-06-19T03:23:40;24.20;95.50
8002;DHT22;4046;48.774;8.732;2023-06-19T03:26:07;24.30;95.60
8002;DHT22;4046;48.774;8.732;2023-06-19T03:28:34;24.30;95.60
8002;DHT22;4046;48.774;8.732;2023-06-19T03:31:00;24.30;95.50
8002;DHT22;4046;48.774;8.732;2023-06-19T03:33:27;24.20;95.60
8002;DHT22;4046;48.774;8.732;2023-06-19T03:35:53;24.20;95.60
8002;DHT22;4046;48.774;8.732;2023-06-19T03:38:19;24.20;95.60
8002;DHT22;4046;48.774;8.732;2023-06-19T03:40:45;24.30;95.70
8002;DHT22;4046;48.774;8.732;2023-06-19T03:43:12;24.20;95.70
8002;DHT22;4046;48.774;8.732;2023-06-19T03:45:38;24.20;95.70
8002;DHT22;4046;48.774;8.732;2023-06-19T03:48:04;24.30;95.80
8002;DHT22;4046;48.774;8.732;2023-06-19T03:50:30;24.20;95.70
8002;DHT22;4046;48.774;8.732;2023-06-19T03:52:55;24.10;95.70
8002;DHT22;4046;48.774;8.732;2023-06-19T03:55:21;24.50;95.80
8002;DHT22;4046;48.774;8.732;2023-06-19T03:57:47;24.20;95.70
8002;DHT22;4046;48.774;8.732;2023-06-19T04:00:14;24.20;95.80
8002;DHT22;4046;48.774;8.732;2023-06-19T04:02:41;24.20;95.80
8002;DHT22;4046;48.774;8.732;2023-06-19T04:05:09;24.50;96.00
8002;DHT22;4046;48.774;8.732;2023-06-19T04:07:35;24.30;95.90
8002;DHT22;4046;48.774;8.732;2023-06-19T04:10:02;24.30;95.90
8002;DHT22;4046;48.774;8.732;2023-06-19T04:12:28;24.20;95.90
8002;DHT22;4046;48.774;8.732;2023-06-19T04:14:54;24.20;95.90
8002;DHT22;4046;48.774;8.732;2023-06-19T04:17:19;24.20;96.00
8002;DHT22;4046;48.774;8.732;2023-06-19T04:19:45;24.20;95.90
8002;DHT22;4046;48.774;8.732;2023-06-19T04:22:14;24.20;96.00
8002;DHT22;4046;48.774;8.732;2023-06-19T04:24:39;24.20;95.90
8002;DHT22;4046;48.774;8.732;2023-06-19T04:27:05;24.20;96.00
8002;DHT22;4046;48.774;8.732;2023-06-19T04:29:34;24.20;96.00
8002;DHT22;4046;48.774;8.732;2023-06-19T04:32:01;24.20;96.00
8002;DHT22;4046;48.774;8.732;2023-06-19T04:34:29;24.20;96.10
8002;DHT22;4046;48.774;8.732;2023-06-19T04:36:55;24.20;96.00
8002;DHT22;4046;48.774;8.732;2023-06-19T04:39:24;24.30;96.40
8002;DHT22;4046;48.774;8.732;2023-06-19T04:41:50;24.20;96.00
8002;DHT22;4046;48.774;8.732;2023-06-19T04:44:16;24.20;96.10
8002;DHT22;4046;48.774;8.732;2023-06-19T04:46:42;24.20;96.00
8002;DHT22;4046;48.774;8.732;2023-06-19T04:49:09;24.20;96.00
8002;DHT22;4046;48.774;8.732;2023-06-19T04:51:35;24.30;96.10
8002;DHT22;4046;48.774;8.732;2023-06-19T04:54:01;24.20;95.90
8002;DHT22;4046;48.774;8.732;2023-06-19T04:56:27;24.20;95.90
8002;DHT22;4046;48.774;8.732;2023-06-19T04:58:52;24.20;95.90
8002;DHT22;4046;48.774;8.732;2023-06-19T05:01:21;24.30;96.00
8002;DHT22;4046;48.774;8.732;2023-06-19T05:03:54;24.20;96.00
8002;DHT22;4046;48.774;8.732;2023-06-19T05:06:24;24.20;95.90
8002;DHT22;4046;48.774;8.732;2023-06-19T05:08:50;24.20;96.00
8002;DHT22;4046;48.774;8.732;2023-06-19T05:11:16;24.20;96.00
8002;DHT22;4046;48.774;8.732;2023-06-19T05:13:42;24.30;96.10
8002;DHT22;4046;48.774;8.732;2023-06-19T05:16:08;24.30;96.00
8002;DHT22;4046;48.774;8.732;2023-06-19T05:18:34;24.30;96.30
8002;DHT22;4046;48.774;8.732;2023-06-19T05:21:00;24.30;96.10
8002;DHT22;4046;48.774;8.732;2023-06-19T05:23:26;24.30;96.10
8002;DHT22;4046;48.774;8.732;2023-06-19T05:25:51;24.30;96.10
8002;DHT22;4046;48.774;8.732;2023-06-19T05:28:17;24.30;96.10
8002;DHT22;4046;48.774;8.732;2023-06-19T05:30:43;24.30;96.20
8002;DHT22;4046;48.774;8.732;2023-06-19T05:33:09;24.30;96.20
8002;DHT22;4046;48.774;8.732;2023-06-19T05:35:35;24.30;96.30
8002;DHT22;4046;48.774;8.732;2023-06-19T05:38:01;24.30;96.20
8002;DHT22;4046;48.774;8.732;2023-06-19T05:40:27;24.30;96.20
8002;DHT22;4046;48.774;8.732;2023-06-19T05:42:54;24.30;96.20
8002;DHT22;4046;48.774;8.732;2023-06-19T05:45:23;24.30;96.30
8002;DHT22;4046;48.774;8.732;2023-06-19T05:47:49;24.30;96.30
8002;DHT22;4046;48.774;8.732;2023-06-19T05:50:15;24.00;96.20
8002;DHT22;4046;48.774;8.732;2023-06-19T05:52:40;24.30;96.40
8002;DHT22;4046;48.774;8.732;2023-06-19T05:55:10;24.30;96.40
8002;DHT22;4046;48.774;8.732;2023-06-19T05:57:35;24.30;96.40
8002;DHT22;4046;48.774;8.732;2023-06-19T06:00:02;24.30;96.40
8002;DHT22;4046;48.774;8.732;2023-06-19T06:02:29;24.30;96.40
8002;DHT22;4046;48.774;8.732;2023-06-19T06:04:54;24.30;96.40
8002;DHT22;4046;48.774;8.732;2023-06-19T06:07:22;24.30;96.40
8002;DHT22;4046;48.774;8.732;2023-06-19T06:09:47;24.30;96.40
8002;DHT22;4046;48.774;8.732;2023-06-19T06:12:13;24.10;96.30
8002;DHT22;4046;48.774;8.732;2023-06-19T06:14:40;24.30;96.40
8002;DHT22;4046;48.774;8.732;2023-06-19T06:17:06;24.30;96.40
8002;DHT22;4046;48.774;8.732;2023-06-19T06:19:31;24.30;96.50
8002;DHT22;4046;48.774;8.732;2023-06-19T06:21:57;24.30;96.50
8002;DHT22;4046;48.774;8.732;2023-06-19T06:24:23;24.30;96.50
8002;DHT22;4046;48.774;8.732;2023-06-19T06:26:48;24.50;96.60
8002;DHT22;4046;48.774;8.732;2023-06-19T06:29:14;24.30;96.50
8002;DHT22;4046;48.774;8.732;2023-06-19T06:31:40;24.30;96.60
8002;DHT22;4046;48.774;8.732;2023-06-19T06:34:07;24.30;96.60
8002;DHT22;4046;48.774;8.732;2023-06-19T06:36:33;24.30;96.70
8002;DHT22;4046;48.774;8.732;2023-06-19T06:38:58;24.30;96.70
8002;DHT22;4046;48.774;8.732;2023-06-19T06:41:24;24.30;96.60
8002;DHT22;4046;48.774;8.732;2023-06-19T06:43:50;24.30;96.70
8002;DHT22;4046;48.774;8.732;2023-06-19T06:46:16;24.30;96.60
8002;DHT22;4046;48.774;8.732;2023-06-19T06:48:41;24.30;96.70
8002;DHT22;4046;48.774;8.732;2023-06-19T06:51:07;24.30;96.70
8002;DHT22;4046;48.774;8.732;2023-06-19T06:53:35;24.40;96.70
8002;DHT22;4046;48.774;8.732;2023-06-19T06:56:00;24.40;96.70
8002;DHT22;4046;48.774;8.732;2023-06-19T06:58:27;24.40;96.70
8002;DHT22;4046;48.774;8.732;2023-06-19T07:00:53;24.40;96.70
8002;DHT22;4046;48.774;8.732;2023-06-19T07:03:19;24.40;96.60
8002;DHT22;4046;48.774;8.732;2023-06-19T07:05:47;24.40;96.70
8002;DHT22;4046;48.774;8.732;2023-06-19T07:08:13;24.40;96.60
8002;DHT22;4046;48.774;8.732;2023-06-19T07:10:38;24.50;96.60
8002;DHT22;4046;48.774;8.732;2023-06-19T07:13:04;24.40;96.60
8002;DHT22;4046;48.774;8.732;2023-06-19T07:15:29;24.50;96.60
8002;DHT22;4046;48.774;8.732;2023-06-19T07:17:56;24.50;96.60
8002;DHT22;4046;48.774;8.732;2023-06-19T07:20:22;24.50;96.50
8002;DHT22;4046;48.774;8.732;2023-06-19T07:22:50;24.50;96.50
8002;DHT22;4046;48.774;8.732;2023-06-19T07:25:16;24.50;96.80
8002;DHT22;4046;48.774;8.732;2023-06-19T07:27:43;24.50;96.50
8002;DHT22;4046;48.774;8.732;2023-06-19T07:30:09;24.50;96.60
8002;DHT22;4046;48.774;8.732;2023-06-19T07:32:37;24.50;96.70
8002;DHT22;4046;48.774;8.732;2023-06-19T07:35:04;24.50;96.60
8002;DHT22;4046;48.774;8.732;2023-06-19T07:37:29;24.50;96.60
8002;DHT22;4046;48.774;8.732;2023-06-19T07:39:55;24.50;96.60
8002;DHT22;4046;48.774;8.732;2023-06-19T07:42:21;24.20;96.50
8002;DHT22;4046;48.774;8.732;2023-06-19T07:44:47;24.50;96.60
8002;DHT22;4046;48.774;8.732;2023-06-19T07:47:14;24.60;96.80
8002;DHT22;4046;48.774;8.732;2023-06-19T07:49:40;24.60;96.70
8002;DHT22;4046;48.774;8.732;2023-06-19T07:52:07;24.60;96.70
8002;DHT22;4046;48.774;8.732;2023-06-19T07:54:35;24.60;96.70
8002;DHT22;4046;48.774;8.732;2023-06-19T07:57:01;24.60;96.70
8002;DHT22;4046;48.774;8.732;2023-06-19T07:59:27;24.60;96.60
8002;DHT22;4046;48.774;8.732;2023-06-19T08:01:53;24.60;96.60
8002;DHT22;4046;48.774;8.732;2023-06-19T08:04:19;24.60;96.50
8002;DHT22;4046;48.774;8.732;2023-06-19T08:06:45;24.80;96.50
8002;DHT22;4046;48.774;8.732;2023-06-19T08:09:11;24.60;96.40
8002;DHT22;4046;48.774;8.732;2023-06-19T08:11:36;24.60;96.40
8002;DHT22;4046;48.774;8.732;2023-06-19T08:14:05;24.70;96.40
8002;DHT22;4046;48.774;8.732;2023-06-19T08:16:31;24.70;96.40
8002;DHT22;4046;48.774;8.732;2023-06-19T08:18:58;24.70;96.40
8002;DHT22;4046;48.774;8.732;2023-06-19T08:21:23;24.70;96.40
8002;DHT22;4046;48.774;8.732;2023-06-19T08:23:50;24.70;96.30
8002;DHT22;4046;48.774;8.732;2023-06-19T08:26:15;24.70;96.30
8002;DHT22;4046;48.774;8.732;2023-06-19T08:28:42;24.80;96.30
8002;DHT22;4046;48.774;8.732;2023-06-19T08:31:08;24.80;96.20
8002;DHT22;4046;48.774;8.732;2023-06-19T08:33:36;24.80;96.20
8002;DHT22;4046;48.774;8.732;2023-06-19T08:36:02;24.80;96.20
8002;DHT22;4046;48.774;8.732;2023-06-19T08:38:28;24.80;96.20
8002;DHT22;4046;48.774;8.732;2023-06-19T08:40:54;24.80;96.20
8002;DHT22;4046;48.774;8.732;2023-06-19T08:43:20;24.80;96.10
8002;DHT22;4046;48.774;8.732;2023-06-19T08:46:10;24.80;96.10
8002;DHT22;4046;48.774;8.732;2023-06-19T08:48:37;24.80;96.10
8002;DHT22;4046;48.774;8.732;2023-06-19T08:51:03;24.80;96.00
8002;DHT22;4046;48.774;8.732;2023-06-19T08:53:33;24.80;96.00
8002;DHT22;4046;48.774;8.732;2023-06-19T08:56:00;24.90;96.10
8002;DHT22;4046;48.774;8.732;2023-06-19T08:58:26;24.90;96.00
8002;DHT22;4046;48.774;8.732;2023-06-19T09:00:52;24.90;95.90
8002;DHT22;4046;48.774;8.732;2023-06-19T09:03:21;25.00;96.10
8002;DHT22;4046;48.774;8.732;2023-06-19T09:05:48;25.10;96.00
8002;DHT22;4046;48.774;8.732;2023-06-19T09:08:21;25.00;95.90
8002;DHT22;4046;48.774;8.732;2023-06-19T09:11:01;25.00;96.00
8002;DHT22;4046;48.774;8.732;2023-06-19T09:13:28;25.00;96.00
8002;DHT22;4046;48.774;8.732;2023-06-19T09:15:59;25.10;96.00
8002;DHT22;4046;48.774;8.732;2023-06-19T09:18:26;25.10;96.00
8002;DHT22;4046;48.774;8.732;2023-06-19T09:20:53;25.10;96.10
8002;DHT22;4046;48.774;8.732;2023-06-19T09:23:19;25.10;96.00
8002;DHT22;4046;48.774;8.732;2023-06-19T09:25:57;25.20;96.00
8002;DHT22;4046;48.774;8.732;2023-06-19T09:28:24;25.20;96.00
8002;DHT22;4046;48.774;8.732;2023-06-19T09:30:55;25.20;96.30
8002;DHT22;4046;48.774;8.732;2023-06-19T09:33:22;25.30;95.90
8002;DHT22;4046;48.774;8.732;2023-06-19T09:35:50;25.30;95.90
8002;DHT22;4046;48.774;8.732;2023-06-19T09:38:17;25.40;95.90
8002;DHT22;4046;48.774;8.732;2023-06-19T09:40:47;25.40;95.80
8002;DHT22;4046;48.774;8.732;2023-06-19T09:43:22;25.40;95.80
8002;DHT22;4046;48.774;8.732;2023-06-19T09:45:49;25.40;95.80
8002;DHT22;4046;48.774;8.732;2023-06-19T09:48:20;25.40;95.80
8002;DHT22;4046;48.774;8.732;2023-06-19T09:50:50;25.50;95.80
8002;DHT22;4046;48.774;8.732;2023-06-19T09:53:20;25.50;95.80
8002;DHT22;4046;48.774;8.732;2023-06-19T09:55:50;25.50;95.80
8002;DHT22;4046;48.774;8.732;2023-06-19T09:58:18;25.50;95.80
8002;DHT22;4046;48.774;8.732;2023-06-19T10:00:45;25.50;95.80
8002;DHT22;4046;48.774;8.732;2023-06-19T10:03:12;25.50;95.80
8002;DHT22;4046;48.774;8.732;2023-06-19T10:05:39;25.50;95.80
8002;DHT22;4046;48.774;8.732;2023-06-19T10:08:06;25.50;95.80
8002;DHT22;4046;48.774;8.732;2023-06-19T10:10:32;25.50;95.80
8002;DHT22;4046;48.774;8.732;2023-06-19T10:13:13;25.50;95.80
8002;DHT22;4046;48.774;8.732;2023-06-19T10:15:44;25.50;95.90
8002;DHT22;4046;48.774;8.732;2023-06-19T10:18:15;25.50;95.90
8002;DHT22;4046;48.774;8.732;2023-06-19T10:20:45;25.40;96.00
8002;DHT22;4046;48.774;8.732;2023-06-19T10:23:13;25.40;95.90
8002;DHT22;4046;48.774;8.732;2023-06-19T10:25:46;25.40;96.00
8002;DHT22;4046;48.774;8.732;2023-06-19T10:28:22;25.40;96.00
8002;DHT22;4046;48.774;8.732;2023-06-19T10:30:58;25.40;96.00
8002;DHT22;4046;48.774;8.732;2023-06-19T10:33:28;25.50;95.90
8002;DHT22;4046;48.774;8.732;2023-06-19T10:35:54;25.40;95.90
8002;DHT22;4046;48.774;8.732;2023-06-19T10:38:20;25.50;95.90
8002;DHT22;4046;48.774;8.732;2023-06-19T10:40:46;25.50;95.90
8002;DHT22;4046;48.774;8.732;2023-06-19T10:43:13;25.50;95.90
8002;DHT22;4046;48.774;8.732;2023-06-19T10:45:44;25.50;96.20
8002;DHT22;4046;48.774;8.732;2023-06-19T10:48:10;25.50;95.80
8002;DHT22;4046;48.774;8.732;2023-06-19T10:50:42;25.50;95.70
8002;DHT22;4046;48.774;8.732;2023-06-19T10:53:08;25.60;95.70
8002;DHT22;4046;48.774;8.732;2023-06-19T10:55:34;25.60;95.70
8002;DHT22;4046;48.774;8.732;2023-06-19T10:58:00;25.60;95.70
8002;DHT22;4046;48.774;8.732;2023-06-19T11:00:32;25.70;95.70
8002;DHT22;4046;48.774;8.732;2023-06-19T11:02:58;25.70;95.70
8002;DHT22;4046;48.774;8.732;2023-06-19T11:05:26;25.70;95.70
8002;DHT22;4046;48.774;8.732;2023-06-19T11:07:56;25.70;95.70
8002;DHT22;4046;48.774;8.732;2023-06-19T11:10:24;25.70;95.70
8002;DHT22;4046;48.774;8.732;2023-06-19T11:12:54;25.70;95.70
8002;DHT22;4046;48.774;8.732;2023-06-19T11:15:28;25.70;95.80
8002;DHT22;4046;48.774;8.732;2023-06-19T11:17:54;25.70;95.80
8002;DHT22;4046;48.774;8.732;2023-06-19T11:20:20;25.70;95.70
8002;DHT22;4046;48.774;8.732;2023-06-19T11:22:46;25.70;95.80
8002;DHT22;4046;48.774;8.732;2023-06-19T11:25:12;25.70;95.80
8002;DHT22;4046;48.774;8.732;2023-06-19T11:27:39;25.70;95.80
8002;DHT22;4046;48.774;8.732;2023-06-19T11:30:05;25.60;95.80
8002;DHT22;4046;48.774;8.732;2023-06-19T11:32:37;25.60;95.80
8002;DHT22;4046;48.774;8.732;2023-06-19T11:35:09;25.60;95.80
8002;DHT22;4046;48.774;8.732;2023-06-19T11:37:34;25.60;95.90
8002;DHT22;4046;48.774;8.732;2023-06-19T11:40:01;25.70;96.00
8002;DHT22;4046;48.774;8.732;2023-06-19T11:42:30;25.60;96.30
8002;DHT22;4046;48.774;8.732;2023-06-19T11:45:03;25.60;95.90
8002;DHT22;4046;48.774;8.732;2023-06-19T11:47:32;25.60;95.90
8002;DHT22;4046;48.774;8.732;2023-06-19T11:49:58;25.60;96.00
8002;DHT22;4046;48.774;8.732;2023-06-19T11:52:24;25.60;96.00
8002;DHT22;4046;48.774;8.732;2023-06-19T11:54:50;25.60;96.00
8002;DHT22;4046;48.774;8.732;2023-06-19T11:57:15;25.70;96.10
8002;DHT22;4046;48.774;8.732;2023-06-19T11:59:42;25.60;96.00
8002;DHT22;4046;48.774;8.732;2023-06-19T12:02:08;25.70;96.00
8002;DHT22;4046;48.774;8.732;2023-06-19T12:04:35;25.70;96.00
8002;DHT22;4046;48.774;8.732;2023-06-19T12:07:01;25.70;96.00
8002;DHT22;4046;48.774;8.732;2023-06-19T12:09:30;25.70;96.00
8002;DHT22;4046;48.774;8.732;2023-06-19T12:11:56;25.70;96.00
8002;DHT22;4046;48.774;8.732;2023-06-19T12:14:22;25.80;96.00
8002;DHT22;4046;48.774;8.732;2023-06-19T12:16:50;26.00;96.10
8002;DHT22;4046;48.774;8.732;2023-06-19T12:19:16;25.80;96.00
8002;DHT22;4046;48.774;8.732;2023-06-19T12:21:42;25.80;96.10
8002;DHT22;4046;48.774;8.732;2023-06-19T12:24:08;25.80;96.10
8002;DHT22;4046;48.774;8.732;2023-06-19T12:26:35;25.80;96.10
8002;DHT22;4046;48.774;8.732;2023-06-19T12:29:03;25.80;96.10
8002;DHT22;4046;48.774;8.732;2023-06-19T12:31:30;25.80;96.10
8002;DHT22;4046;48.774;8.732;2023-06-19T12:33:56;25.80;96.10
8002;DHT22;4046;48.774;8.732;2023-06-19T12:36:22;25.80;96.20
8002;DHT22;4046;48.774;8.732;2023-06-19T12:38:48;25.80;96.10
8002;DHT22;4046;48.774;8.732;2023-06-19T12:41:15;25.80;96.20
8002;DHT22;4046;48.774;8.732;2023-06-19T12:43:41;25.70;96.20
8002;DHT22;4046;48.774;8.732;2023-06-19T12:46:07;25.80;96.20
8002;DHT22;4046;48.774;8.732;2023-06-19T12:48:33;25.70;96.30
8002;DHT22;4046;48.774;8.732;2023-06-19T12:50:59;25.80;96.30
8002;DHT22;4046;48.774;8.732;2023-06-19T12:53:24;25.70;96.40
8002;DHT22;4046;48.774;8.732;2023-06-19T12:55:57;25.80;96.30
8002;DHT22;4046;48.774;8.732;2023-06-19T12:58:24;25.80;96.30
8002;DHT22;4046;48.774;8.732;2023-06-19T13:00:50;25.80;96.30
8002;DHT22;4046;48.774;8.732;2023-06-19T13:03:16;25.80;96.40
8002;DHT22;4046;48.774;8.732;2023-06-19T13:05:42;25.80;96.40
8002;DHT22;4046;48.774;8.732;2023-06-19T13:08:07;25.70;96.50
8002;DHT22;4046;48.774;8.732;2023-06-19T13:10:33;25.80;96.40
8002;DHT22;4046;48.774;8.732;2023-06-19T13:12:59;25.70;96.40
8002;DHT22;4046;48.774;8.732;2023-06-19T13:15:25;25.80;96.40
8002;DHT22;4046;48.774;8.732;2023-06-19T13:17:51;25.80;96.40
8002;DHT22;4046;48.774;8.732;2023-06-19T13:20:17;25.80;96.40
8002;DHT22;4046;48.774;8.732;2023-06-19T13:22:43;26.00;96.50
8002;DHT22;4046;48.774;8.732;2023-06-19T13:25:09;25.80;96.50
8002;DHT22;4046;48.774;8.732;2023-06-19T13:27:35;25.80;96.40
8002;DHT22;4046;48.774;8.732;2023-06-19T13:30:02;25.80;96.40
8002;DHT22;4046;48.774;8.732;2023-06-19T13:32:28;25.90;96.50
8002;DHT22;4046;48.774;8.732;2023-06-19T13:34:54;25.80;96.50
8002;DHT22;4046;48.774;8.732;2023-06-19T13:37:20;25.90;96.50
8002;DHT22;4046;48.774;8.732;2023-06-19T13:39:46;25.90;96.50
8002;DHT22;4046;48.774;8.732;2023-06-19T13:42:12;25.90;96.50
8002;DHT22;4046;48.774;8.732;2023-06-19T13:44:38;25.80;96.50
8002;DHT22;4046;48.774;8.732;2023-06-19T13:47:04;25.90;96.60
8002;DHT22;4046;48.774;8.732;2023-06-19T13:49:31;25.70;96.50
8002;DHT22;4046;48.774;8.732;2023-06-19T13:51:56;25.90;96.60
8002;DHT22;4046;48.774;8.732;2023-06-19T13:54:22;25.90;96.60
8002;DHT22;4046;48.774;8.732;2023-06-19T13:56:49;25.80;96.60
8002;DHT22;4046;48.774;8.732;2023-06-19T13:59:16;25.80;96.60
8002;DHT22;4046;48.774;8.732;2023-06-19T14:01:42;25.80;96.60
8002;DHT22;4046;48.774;8.732;2023-06-19T14:04:08;25.90;96.70
8002;DHT22;4046;48.774;8.732;2023-06-19T14:06:37;25.80;96.60
8002;DHT22;4046;48.774;8.732;2023-06-19T14:09:03;25.80;96.70
8002;DHT22;4046;48.774;8.732;2023-06-19T14:11:29;25.80;96.70
8002;DHT22;4046;48.774;8.732;2023-06-19T14:13:58;25.80;96.70
8002;DHT22;4046;48.774;8.732;2023-06-19T14:16:23;25.80;96.70
8002;DHT22;4046;48.774;8.732;2023-06-19T14:18:49;25.80;96.70
8002;DHT22;4046;48.774;8.732;2023-06-19T14:21:15;25.80;96.70
8002;DHT22;4046;48.774;8.732;2023-06-19T14:23:41;25.80;96.70
8002;DHT22;4046;48.774;8.732;2023-06-19T14:26:12;25.80;96.70
8002;DHT22;4046;48.774;8.732;2023-06-19T14:28:38;25.90;96.80
8002;DHT22;4046;48.774;8.732;2023-06-19T14:31:05;25.80;96.70
8002;DHT22;4046;48.774;8.732;2023-06-19T14:33:31;25.90;96.80
8002;DHT22;4046;48.774;8.732;2023-06-19T14:35:59;25.80;96.70
8002;DHT22;4046;48.774;8.732;2023-06-19T14:38:25;25.80;96.80
8002;DHT22;4046;48.774;8.732;2023-06-19T14:40:53;25.80;97.00
8002;DHT22;4046;48.774;8.732;2023-06-19T14:43:19;25.80;96.90
8002;DHT22;4046;48.774;8.732;2023-06-19T14:45:45;25.90;97.50
8002;DHT22;4046;48.774;8.732;2023-06-19T14:48:11;25.90;97.90
8002;DHT22;4046;48.774;8.732;2023-06-19T14:50:37;26.00;98.50
8002;DHT22;4046;48.774;8.732;2023-06-19T14:53:03;26.00;98.70
8002;DHT22;4046;48.774;8.732;2023-06-19T14:55:28;26.00;98.90
8002;DHT22;4046;48.774;8.732;2023-06-19T14:57:54;26.00;99.40
8002;DHT22;4046;48.774;8.732;2023-06-19T15:00:20;26.10;99.40
8002;DHT22;4046;48.774;8.732;2023-06-19T15:02:45;26.10;99.20
8002;DHT22;4046;48.774;8.732;2023-06-19T15:05:11;26.10;99.10
8002;DHT22;4046;48.774;8.732;2023-06-19T15:07:37;26.10;99.00
8002;DHT22;4046;48.774;8.732;2023-06-19T15:10:03;26.00;98.90
8002;DHT22;4046;48.774;8.732;2023-06-19T15:12:30;26.00;98.80
8002;DHT22;4046;48.774;8.732;2023-06-19T15:14:57;26.00;99.00
8002;DHT22;4046;48.774;8.732;2023-06-19T15:17:23;26.00;98.90
8002;DHT22;4046;48.774;8.732;2023-06-19T15:19:49;26.00;98.70
8002;DHT22;4046;48.774;8.732;2023-06-19T15:22:15;26.00;98.70
8002;DHT22;4046;48.774;8.732;2023-06-19T15:24:41;26.00;98.60
8002;DHT22;4046;48.774;8.732;2023-06-19T15:27:06;26.00;98.60
8002;DHT22;4046;48.774;8.732;2023-06-19T15:29:32;26.00;98.60
8002;DHT22;4046;48.774;8.732;2023-06-19T15:31:58;25.90;98.50
8002;DHT22;4046;48.774;8.732;2023-06-19T15:34:24;25.90;98.40
8002;DHT22;4046;48.774;8.732;2023-06-19T15:36:49;25.90;98.30
8002;DHT22;4046;48.774;8.732;2023-06-19T15:39:15;25.90;98.30
8002;DHT22;4046;48.774;8.732;2023-06-19T15:41:44;25.90;98.30
8002;DHT22;4046;48.774;8.732;2023-06-19T15:44:14;25.90;98.30
8002;DHT22;4046;48.774;8.732;2023-06-19T15:46:40;25.90;98.20
8002;DHT22;4046;48.774;8.732;2023-06-19T15:49:06;25.90;98.20
8002;DHT22;4046;48.774;8.732;2023-06-19T15:51:32;25.90;98.20
8002;DHT22;4046;48.774;8.732;2023-06-19T15:53:58;25.90;98.20
8002;DHT22;4046;48.774;8.732;2023-06-19T15:56:24;25.90;98.20
8002;DHT22;4046;48.774;8.732;2023-06-19T15:58:50;25.90;98.20
8002;DHT22;4046;48.774;8.732;2023-06-19T16:01:17;25.90;98.20
8002;DHT22;4046;48.774;8.732;2023-06-19T16:03:43;25.80;98.20